sensor_id;sensor_type;location;lat;lon;timestamp;temperature;humidity
23120;DHT22;11729;50.836;4.330;2023-02-21T00:02:30;9.60;99.90
23120;DHT22;11729;50.836;4.330;2023-02-21T00:05:14;9.60;99.90
23120;DHT22;11729;50.836;4.330;2023-02-21T00:07:58;9.50;99.90
23120;DHT22;11729;50.836;4.330;2023-02-21T00:10:42;9.40;99.90
23120;DHT22;11729;50.836;4.330;2023-02-21T00:13:26;9.40;99.90
23120;DHT22;11729;50.836;4.330;2023-02-21T00:16:17;9.40;99.90
23120;DHT22;11729;50.836;4.330;2023-02-21T00:19:02;9.20;99.90
23120;DHT22;11729;50.836;4.330;2023-02-21T00:21:47;9.20;99.90
23120;DHT22;11729;50.836;4.330;2023-02-21T00:24:31;9.20;99.90
23120;DHT22;11729;50.836;4.330;2023-02-21T00:27:15;9.20;99.90
23120;DHT22;11729;50.836;4.330;2023-02-21T00:29:59;9.20;99.90
23120;DHT22;11729;50.836;4.330;2023-02-21T00:32:45;9.20;99.90
23120;DHT22;11729;50.836;4.330;2023-02-21T00:35:29;9.20;99.90
23120;DHT22;11729;50.836;4.330;2023-02-21T00:38:13;9.20;99.90
23120;DHT22;11729;50.836;4.330;2023-02-21T00:40:57;9.30;99.90
23120;DHT22;11729;50.836;4.330;2023-02-21T00:43:41;9.30;99.90
23120;DHT22;11729;50.836;4.330;2023-02-21T00:46:25;9.20;99.90
23120;DHT22;11729;50.836;4.330;2023-02-21T00:49:10;9.10;99.90
23120;DHT22;11729;50.836;4.330;2023-02-21T00:51:54;9.10;99.90
23120;DHT22;11729;50.836;4.330;2023-02-21T00:54:38;9.00;99.90
23120;DHT22;11729;50.836;4.330;2023-02-21T00:57:22;8.90;99.90
23120;DHT22;11729;50.836;4.330;2023-02-21T01:00:20;8.90;99.90
23120;DHT22;11729;50.836;4.330;2023-02-21T01:03:05;9.00;99.90
23120;DHT22;11729;50.836;4.330;2023-02-21T01:05:49;9.00;99.90
23120;DHT22;11729;50.836;4.330;2023-02-21T01:08:34;9.00;99.90
23120;DHT22;11729;50.836;4.330;2023-02-21T01:11:20;9.10;99.90
23120;DHT22;11729;50.836;4.330;2023-02-21T01:14:05;9.00;99.90
23120;DHT22;11729;50.836;4.330;2023-02-21T01:16:51;9.00;99.90
23120;DHT22;11729;50.836;4.330;2023-02-21T01:19:35;9.10;99.90
23120;DHT22;11729;50.836;4.330;2023-02-21T01:22:19;9.20;99.90
23120;DHT22;11729;50.836;4.330;2023-02-21T01:25:04;9.10;99.90
23120;DHT22;11729;50.836;4.330;2023-02-21T01:27:48;9.00;99.90
23120;DHT22;11729;50.836;4.330;2023-02-21T01:30:32;9.00;99.90
23120;DHT22;11729;50.836;4.330;2023-02-21T01:33:16;9.00;99.90
23120;DHT22;11729;50.836;4.330;2023-02-21T01:36:03;8.90;99.90
23120;DHT22;11729;50.836;4.330;2023-02-21T01:38:47;8.90;99.90
23120;DHT22;11729;50.836;4.330;2023-02-21T01:41:32;8.80;99.90
23120;DHT22;11729;50.836;4.330;2023-02-21T01:47:22;8.60;99.90
23120;DHT22;11729;50.836;4.330;2023-02-21T01:50:15;8.70;99.90
23120;DHT22;11729;50.836;4.330;2023-02-21T01:53:05;8.80;99.90
23120;DHT22;11729;50.836;4.330;2023-02-21T01:55:50;8.70;99.90
23120;DHT22;11729;50.836;4.330;2023-02-21T01:58:34;8.60;99.90
23120;DHT22;11729;50.836;4.330;2023-02-21T02:01:40;8.60;99.90
23120;DHT22;11729;50.836;4.330;2023-02-21T02:04:26;8.70;99.90
23120;DHT22;11729;50.836;4.330;2023-02-21T02:07:10;8.70;99.90
23120;DHT22;11729;50.836;4.330;2023-02-21T02:09:54;8.70;99.90
23120;DHT22;11729;50.836;4.330;2023-02-21T02:12:50;8.60;99.90
23120;DHT22;11729;50.836;4.330;2023-02-21T02:15:23;8.60;99.90
23120;DHT22;11729;50.836;4.330;2023-02-21T02:21:13;8.70;99.90
23120;DHT22;11729;50.836;4.330;2023-02-21T02:34:58;8.60;99.90
23120;DHT22;11729;50.836;4.330;2023-02-21T02:37:39;8.60;99.90
23120;DHT22;11729;50.836;4.330;2023-02-21T02:40:20;8.70;99.90
23120;DHT22;11729;50.836;4.330;2023-02-21T02:43:00;8.70;99.90
23120;DHT22;11729;50.836;4.330;2023-02-21T02:45:47;8.60;99.90
23120;DHT22;11729;50.836;4.330;2023-02-21T02:48:32;8.50;99.90
23120;DHT22;11729;50.836;4.330;2023-02-21T02:51:02;8.50;99.90
23120;DHT22;11729;50.836;4.330;2023-02-21T02:53:29;8.60;99.90
23120;DHT22;11729;50.836;4.330;2023-02-21T02:58:24;8.80;99.90
23120;DHT22;11729;50.836;4.330;2023-02-21T03:09:12;8.80;99.90
23120;DHT22;11729;50.836;4.330;2023-02-21T03:12:18;8.80;99.90
23120;DHT22;11729;50.836;4.330;2023-02-21T03:14:46;8.70;99.90
23120;DHT22;11729;50.836;4.330;2023-02-21T03:17:16;8.80;99.90
23120;DHT22;11729;50.836;4.330;2023-02-21T03:19:46;9.00;99.90
23120;DHT22;11729;50.836;4.330;2023-02-21T03:22:16;9.10;99.90
23120;DHT22;11729;50.836;4.330;2023-02-21T03:24:45;9.10;99.90
23120;DHT22;11729;50.836;4.330;2023-02-21T03:27:13;9.00;99.90
23120;DHT22;11729;50.836;4.330;2023-02-21T03:29:40;8.90;99.90
23120;DHT22;11729;50.836;4.330;2023-02-21T03:32:16;8.90;99.90
23120;DHT22;11729;50.836;4.330;2023-02-21T03:34:43;8.70;99.90
23120;DHT22;11729;50.836;4.330;2023-02-21T03:37:30;8.70;99.90
23120;DHT22;11729;50.836;4.330;2023-02-21T03:39:56;9.00;99.90
23120;DHT22;11729;50.836;4.330;2023-02-21T03:42:21;8.90;99.90
23120;DHT22;11729;50.836;4.330;2023-02-21T03:44:47;8.70;99.90
23120;DHT22;11729;50.836;4.330;2023-02-21T03:47:13;8.70;99.90
23120;DHT22;11729;50.836;4.330;2023-02-21T03:49:38;8.80;99.90
23120;DHT22;11729;50.836;4.330;2023-02-21T03:52:04;8.70;99.90
23120;DHT22;11729;50.836;4.330;2023-02-21T03:54:30;8.70;99.90
23120;DHT22;11729;50.836;4.330;2023-02-21T03:56:55;8.70;99.90
23120;DHT22;11729;50.836;4.330;2023-02-21T03:59:21;8.70;99.90
23120;DHT22;11729;50.836;4.330;2023-02-21T04:01:46;8.80;99.90
23120;DHT22;11729;50.836;4.330;2023-02-21T04:04:12;8.70;99.90
23120;DHT22;11729;50.836;4.330;2023-02-21T04:06:38;8.70;99.90
23120;DHT22;11729;50.836;4.330;2023-02-21T04:09:03;8.70;99.90
23120;DHT22;11729;50.836;4.330;2023-02-21T04:11:30;8.70;99.90
23120;DHT22;11729;50.836;4.330;2023-02-21T04:13:55;8.70;99.90
23120;DHT22;11729;50.836;4.330;2023-02-21T04:16:21;8.60;99.90
23120;DHT22;11729;50.836;4.330;2023-02-21T04:18:46;8.60;99.90
23120;DHT22;11729;50.836;4.330;2023-02-21T04:21:18;8.50;99.90
23120;DHT22;11729;50.836;4.330;2023-02-21T04:23:44;8.50;99.90
23120;DHT22;11729;50.836;4.330;2023-02-21T04:26:09;8.50;99.90
23120;DHT22;11729;50.836;4.330;2023-02-21T04:28:35;8.50;99.90
23120;DHT22;11729;50.836;4.330;2023-02-21T04:31:00;8.50;99.90
23120;DHT22;11729;50.836;4.330;2023-02-21T04:33:26;8.40;99.90
23120;DHT22;11729;50.836;4.330;2023-02-21T04:35:52;8.40;99.90
23120;DHT22;11729;50.836;4.330;2023-02-21T04:38:18;8.60;99.90
23120;DHT22;11729;50.836;4.330;2023-02-21T04:40:43;8.60;99.90
23120;DHT22;11729;50.836;4.330;2023-02-21T04:43:09;8.60;99.90
23120;DHT22;11729;50.836;4.330;2023-02-21T04:45:34;8.50;99.90
23120;DHT22;11729;50.836;4.330;2023-02-21T04:48:01;8.40;99.90
23120;DHT22;11729;50.836;4.330;2023-02-21T04:50:28;8.50;99.90
23120;DHT22;11729;50.836;4.330;2023-02-21T04:52:54;8.50;99.90
23120;DHT22;11729;50.836;4.330;2023-02-21T04:55:19;8.50;99.90
23120;DHT22;11729;50.836;4.330;2023-02-21T04:57:45;8.40;99.90
23120;DHT22;11729;50.836;4.330;2023-02-21T05:00:11;8.40;99.90
23120;DHT22;11729;50.836;4.330;2023-02-21T05:02:37;8.30;99.90
23120;DHT22;11729;50.836;4.330;2023-02-21T05:05:02;8.30;99.90
23120;DHT22;11729;50.836;4.330;2023-02-21T05:07:28;8.40;99.90
23120;DHT22;11729;50.836;4.330;2023-02-21T05:09:54;8.30;99.90
23120;DHT22;11729;50.836;4.330;2023-02-21T05:12:19;8.30;99.90
23120;DHT22;11729;50.836;4.330;2023-02-21T05:14:46;8.20;99.90
23120;DHT22;11729;50.836;4.330;2023-02-21T05:17:12;8.30;99.90
23120;DHT22;11729;50.836;4.330;2023-02-21T05:19:37;8.50;99.90
23120;DHT22;11729;50.836;4.330;2023-02-21T05:22:03;8.40;99.90
23120;DHT22;11729;50.836;4.330;2023-02-21T05:24:32;8.30;99.90
23120;DHT22;11729;50.836;4.330;2023-02-21T05:26:58;8.40;99.90
23120;DHT22;11729;50.836;4.330;2023-02-21T05:29:25;8.40;99.90
23120;DHT22;11729;50.836;4.330;2023-02-21T05:31:50;8.30;99.90
23120;DHT22;11729;50.836;4.330;2023-02-21T05:34:16;8.40;99.90
23120;DHT22;11729;50.836;4.330;2023-02-21T05:36:44;8.40;99.90
23120;DHT22;11729;50.836;4.330;2023-02-21T05:39:10;8.50;99.90
23120;DHT22;11729;50.836;4.330;2023-02-21T05:41:36;8.50;99.90
23120;DHT22;11729;50.836;4.330;2023-02-21T05:44:02;8.40;99.90
23120;DHT22;11729;50.836;4.330;2023-02-21T05:46:31;8.30;99.90
23120;DHT22;11729;50.836;4.330;2023-02-21T05:48:57;8.30;99.90
23120;DHT22;11729;50.836;4.330;2023-02-21T05:51:23;8.40;99.90
23120;DHT22;11729;50.836;4.330;2023-02-21T05:53:50;8.30;99.90
23120;DHT22;11729;50.836;4.330;2023-02-21T05:56:17;8.30;99.90
23120;DHT22;11729;50.836;4.330;2023-02-21T05:58:43;8.50;99.90
23120;DHT22;11729;50.836;4.330;2023-02-21T06:01:09;8.50;99.90
23120;DHT22;11729;50.836;4.330;2023-02-21T06:03:35;8.50;99.90
23120;DHT22;11729;50.836;4.330;2023-02-21T06:06:00;8.60;99.90
23120;DHT22;11729;50.836;4.330;2023-02-21T06:08:26;8.50;99.90
23120;DHT22;11729;50.836;4.330;2023-02-21T06:10:52;8.60;99.90
23120;DHT22;11729;50.836;4.330;2023-02-21T06:13:17;8.70;99.90
23120;DHT22;11729;50.836;4.330;2023-02-21T06:15:44;8.70;99.90
23120;DHT22;11729;50.836;4.330;2023-02-21T06:18:12;8.60;99.90
23120;DHT22;11729;50.836;4.330;2023-02-21T06:20:38;8.50;99.90
23120;DHT22;11729;50.836;4.330;2023-02-21T06:23:04;8.40;99.90
23120;DHT22;11729;50.836;4.330;2023-02-21T06:25:29;8.50;99.90
23120;DHT22;11729;50.836;4.330;2023-02-21T06:27:55;8.60;99.90
23120;DHT22;11729;50.836;4.330;2023-02-21T06:30:20;8.40;99.90
23120;DHT22;11729;50.836;4.330;2023-02-21T06:32:46;8.40;99.90
23120;DHT22;11729;50.836;4.330;2023-02-21T06:35:11;8.30;99.90
23120;DHT22;11729;50.836;4.330;2023-02-21T06:37:37;8.50;99.90
23120;DHT22;11729;50.836;4.330;2023-02-21T06:40:03;8.50;99.90
23120;DHT22;11729;50.836;4.330;2023-02-21T06:42:29;8.40;99.90
23120;DHT22;11729;50.836;4.330;2023-02-21T06:44:55;8.30;99.90
23120;DHT22;11729;50.836;4.330;2023-02-21T06:47:20;8.40;99.90
23120;DHT22;11729;50.836;4.330;2023-02-21T06:49:46;8.40;99.90
23120;DHT22;11729;50.836;4.330;2023-02-21T06:52:12;8.30;99.90
23120;DHT22;11729;50.836;4.330;2023-02-21T06:54:38;8.30;99.90
23120;DHT22;11729;50.836;4.330;2023-02-21T06:57:04;8.30;99.90
23120;DHT22;11729;50.836;4.330;2023-02-21T06:59:30;8.30;99.90
23120;DHT22;11729;50.836;4.330;2023-02-21T07:01:56;8.40;99.90
23120;DHT22;11729;50.836;4.330;2023-02-21T07:04:22;8.30;99.90
23120;DHT22;11729;50.836;4.330;2023-02-21T07:06:49;8.20;99.90
23120;DHT22;11729;50.836;4.330;2023-02-21T07:09:14;8.30;99.90
23120;DHT22;11729;50.836;4.330;2023-02-21T07:11:40;8.30;99.90
23120;DHT22;11729;50.836;4.330;2023-02-21T07:14:06;8.20;99.90
23120;DHT22;11729;50.836;4.330;2023-02-21T07:16:33;8.20;99.90
23120;DHT22;11729;50.836;4.330;2023-02-21T07:18:59;8.20;99.90
23120;DHT22;11729;50.836;4.330;2023-02-21T07:21:26;8.30;99.90
23120;DHT22;11729;50.836;4.330;2023-02-21T07:23:51;8.30;99.90
23120;DHT22;11729;50.836;4.330;2023-02-21T07:26:19;8.30;99.90
23120;DHT22;11729;50.836;4.330;2023-02-21T07:28:48;8.30;99.90
23120;DHT22;11729;50.836;4.330;2023-02-21T07:31:14;8.30;99.90
23120;DHT22;11729;50.836;4.330;2023-02-21T07:33:39;8.30;99.90
23120;DHT22;11729;50.836;4.330;2023-02-21T07:36:07;8.30;99.90
23120;DHT22;11729;50.836;4.330;2023-02-21T07:38:33;8.20;99.90
23120;DHT22;11729;50.836;4.330;2023-02-21T07:41:01;8.30;99.90
23120;DHT22;11729;50.836;4.330;2023-02-21T07:43:28;8.40;99.90
23120;DHT22;11729;50.836;4.330;2023-02-21T07:45:55;8.40;99.90
23120;DHT22;11729;50.836;4.330;2023-02-21T07:48:21;8.40;99.90
23120;DHT22;11729;50.836;4.330;2023-02-21T07:50:47;8.40;99.90
23120;DHT22;11729;50.836;4.330;2023-02-21T07:53:13;8.30;99.90
23120;DHT22;11729;50.836;4.330;2023-02-21T07:55:40;8.40;99.90
23120;DHT22;11729;50.836;4.330;2023-02-21T07:58:05;8.40;99.90
23120;DHT22;11729;50.836;4.330;2023-02-21T08:00:32;8.50;99.90
23120;DHT22;11729;50.836;4.330;2023-02-21T08:02:58;8.40;99.90
23120;DHT22;11729;50.836;4.330;2023-02-21T08:05:25;8.60;99.90
23120;DHT22;11729;50.836;4.330;2023-02-21T08:07:50;8.50;99.90
23120;DHT22;11729;50.836;4.330;2023-02-21T08:10:23;8.40;99.90
23120;DHT22;11729;50.836;4.330;2023-02-21T08:12:49;8.30;99.90
23120;DHT22;11729;50.836;4.330;2023-02-21T08:15:14;8.50;99.90
23120;DHT22;11729;50.836;4.330;2023-02-21T08:17:40;8.40;99.90
23120;DHT22;11729;50.836;4.330;2023-02-21T08:20:06;8.70;99.90
23120;DHT22;11729;50.836;4.330;2023-02-21T08:22:32;8.60;99.90
23120;DHT22;11729;50.836;4.330;2023-02-21T08:24:58;8.50;99.90
23120;DHT22;11729;50.836;4.330;2023-02-21T08:27:23;8.60;99.90
23120;DHT22;11729;50.836;4.330;2023-02-21T08:29:50;8.70;99.90
23120;DHT22;11729;50.836;4.330;2023-02-21T08:32:16;8.70;99.90
23120;DHT22;11729;50.836;4.330;2023-02-21T08:34:47;8.50;99.90
23120;DHT22;11729;50.836;4.330;2023-02-21T08:37:13;8.60;99.90
23120;DHT22;11729;50.836;4.330;2023-02-21T08:39:51;8.90;99.90
23120;DHT22;11729;50.836;4.330;2023-02-21T08:42:21;9.00;99.90
23120;DHT22;11729;50.836;4.330;2023-02-21T08:44:47;9.00;99.90
23120;DHT22;11729;50.836;4.330;2023-02-21T08:47:14;9.00;99.90
23120;DHT22;11729;50.836;4.330;2023-02-21T08:49:43;8.90;99.90
23120;DHT22;11729;50.836;4.330;2023-02-21T08:52:09;9.00;99.90
23120;DHT22;11729;50.836;4.330;2023-02-21T08:54:35;9.10;99.90
23120;DHT22;11729;50.836;4.330;2023-02-21T08:57:01;9.20;99.90
23120;DHT22;11729;50.836;4.330;2023-02-21T08:59:26;9.00;99.90
23120;DHT22;11729;50.836;4.330;2023-02-21T09:01:54;9.10;99.90
23120;DHT22;11729;50.836;4.330;2023-02-21T09:04:22;9.20;99.90
23120;DHT22;11729;50.836;4.330;2023-02-21T09:06:49;9.30;99.90
23120;DHT22;11729;50.836;4.330;2023-02-21T09:09:15;9.30;99.90
23120;DHT22;11729;50.836;4.330;2023-02-21T09:11:41;9.40;99.90
23120;DHT22;11729;50.836;4.330;2023-02-21T09:14:11;9.50;99.90
23120;DHT22;11729;50.836;4.330;2023-02-21T09:16:37;9.50;99.90
23120;DHT22;11729;50.836;4.330;2023-02-21T09:19:05;9.50;99.90
23120;DHT22;11729;50.836;4.330;2023-02-21T09:21:32;9.60;99.90
23120;DHT22;11729;50.836;4.330;2023-02-21T09:23:58;9.60;99.90
23120;DHT22;11729;50.836;4.330;2023-02-21T09:26:24;9.70;99.90
23120;DHT22;11729;50.836;4.330;2023-02-21T09:28:51;9.70;99.90
23120;DHT22;11729;50.836;4.330;2023-02-21T09:31:19;10.10;99.90
23120;DHT22;11729;50.836;4.330;2023-02-21T09:33:45;10.00;99.90
23120;DHT22;11729;50.836;4.330;2023-02-21T09:36:11;9.80;99.90
23120;DHT22;11729;50.836;4.330;2023-02-21T09:38:37;9.60;99.90
23120;DHT22;11729;50.836;4.330;2023-02-21T09:41:10;9.60;99.90
23120;DHT22;11729;50.836;4.330;2023-02-21T09:43:45;9.50;99.90
23120;DHT22;11729;50.836;4.330;2023-02-21T09:46:45;9.20;99.90
23120;DHT22;11729;50.836;4.330;2023-02-21T09:49:30;9.20;99.90
23120;DHT22;11729;50.836;4.330;2023-02-21T09:51:59;9.40;99.90
23120;DHT22;11729;50.836;4.330;2023-02-21T09:54:40;9.40;99.90
23120;DHT22;11729;50.836;4.330;2023-02-21T09:57:13;9.40;99.90
23120;DHT22;11729;50.836;4.330;2023-02-21T09:59:40;9.30;99.90
23120;DHT22;11729;50.836;4.330;2023-02-21T10:07:38;9.80;99.90
23120;DHT22;11729;50.836;4.330;2023-02-21T10:15:42;9.50;99.90
23120;DHT22;11729;50.836;4.330;2023-02-21T10:18:24;9.30;99.90
23120;DHT22;11729;50.836;4.330;2023-02-21T10:20:54;9.30;99.90
23120;DHT22;11729;50.836;4.330;2023-02-21T10:26:06;9.40;99.90
23120;DHT22;11729;50.836;4.330;2023-02-21T10:28:34;9.60;99.90
23120;DHT22;11729;50.836;4.330;2023-02-21T10:31:04;9.60;99.90
23120;DHT22;11729;50.836;4.330;2023-02-21T10:33:32;9.60;99.90
23120;DHT22;11729;50.836;4.330;2023-02-21T10:35:59;9.60;99.90
23120;DHT22;11729;50.836;4.330;2023-02-21T10:38:25;9.60;99.90
23120;DHT22;11729;50.836;4.330;2023-02-21T10:40:55;9.60;99.90
23120;DHT22;11729;50.836;4.330;2023-02-21T10:43:29;9.70;99.90
23120;DHT22;11729;50.836;4.330;2023-02-21T10:45:58;9.90;99.90
23120;DHT22;11729;50.836;4.330;2023-02-21T10:48:26;10.00;99.90
23120;DHT22;11729;50.836;4.330;2023-02-21T10:53:36;10.30;99.90
23120;DHT22;11729;50.836;4.330;2023-02-21T10:56:23;10.10;99.90
23120;DHT22;11729;50.836;4.330;2023-02-21T11:03:58;9.60;99.90
23120;DHT22;11729;50.836;4.330;2023-02-21T11:06:33;9.70;99.90
23120;DHT22;11729;50.836;4.330;2023-02-21T11:09:01;9.60;99.90
23120;DHT22;11729;50.836;4.330;2023-02-21T11:16:44;10.10;99.90
23120;DHT22;11729;50.836;4.330;2023-02-21T11:19:14;10.20;99.90
23120;DHT22;11729;50.836;4.330;2023-02-21T11:21:41;10.20;99.90
23120;DHT22;11729;50.836;4.330;2023-02-21T11:24:10;10.20;99.90
23120;DHT22;11729;50.836;4.330;2023-02-21T11:26:44;10.00;99.90
23120;DHT22;11729;50.836;4.330;2023-02-21T11:29:15;10.00;99.90
23120;DHT22;11729;50.836;4.330;2023-02-21T11:31:42;10.00;99.90
23120;DHT22;11729;50.836;4.330;2023-02-21T11:34:10;10.00;99.90
23120;DHT22;11729;50.836;4.330;2023-02-21T11:36:43;10.10;99.90
23120;DHT22;11729;50.836;4.330;2023-02-21T11:41:52;10.20;99.90
23120;DHT22;11729;50.836;4.330;2023-02-21T11:44:40;10.30;99.90
23120;DHT22;11729;50.836;4.330;2023-02-21T11:52:17;10.70;99.90
23120;DHT22;11729;50.836;4.330;2023-02-21T11:54:44;10.70;99.90
23120;DHT22;11729;50.836;4.330;2023-02-21T11:59:54;10.60;99.90
23120;DHT22;11729;50.836;4.330;2023-02-21T12:11:17;10.40;99.90
23120;DHT22;11729;50.836;4.330;2023-02-21T12:14:39;10.20;99.90
23120;DHT22;11729;50.836;4.330;2023-02-21T12:17:13;10.30;99.90
23120;DHT22;11729;50.836;4.330;2023-02-21T12:25:17;10.20;99.90
23120;DHT22;11729;50.836;4.330;2023-02-21T12:31:08;10.40;99.90
23120;DHT22;11729;50.836;4.330;2023-02-21T12:36:40;10.50;99.90
23120;DHT22;11729;50.836;4.330;2023-02-21T12:39:22;10.70;99.90
23120;DHT22;11729;50.836;4.330;2023-02-21T12:42:14;10.70;99.90
23120;DHT22;11729;50.836;4.330;2023-02-21T12:48:04;10.70;99.90
23120;DHT22;11729;50.836;4.330;2023-02-21T12:50:35;10.80;99.90
23120;DHT22;11729;50.836;4.330;2023-02-21T13:01:13;11.10;99.90
23120;DHT22;11729;50.836;4.330;2023-02-21T13:03:42;10.70;99.90
23120;DHT22;11729;50.836;4.330;2023-02-21T13:06:17;10.70;99.90
23120;DHT22;11729;50.836;4.330;2023-02-21T13:14:19;10.70;99.90
23120;DHT22;11729;50.836;4.330;2023-02-21T13:16:47;10.50;99.90
23120;DHT22;11729;50.836;4.330;2023-02-21T13:19:14;10.80;99.90
23120;DHT22;11729;50.836;4.330;2023-02-21T13:22:10;10.90;99.90
23120;DHT22;11729;50.836;4.330;2023-02-21T13:25:30;10.90;99.90
23120;DHT22;11729;50.836;4.330;2023-02-21T13:28:14;10.50;99.90
23120;DHT22;11729;50.836;4.330;2023-02-21T13:30:45;10.60;99.90
23120;DHT22;11729;50.836;4.330;2023-02-21T13:35:50;11.00;99.90
23120;DHT22;11729;50.836;4.330;2023-02-21T13:38:18;11.00;99.90
23120;DHT22;11729;50.836;4.330;2023-02-21T13:41:08;11.00;99.90
23120;DHT22;11729;50.836;4.330;2023-02-21T13:43:36;11.10;99.90
23120;DHT22;11729;50.836;4.330;2023-02-21T13:57:43;10.80;99.90
23120;DHT22;11729;50.836;4.330;2023-02-21T14:08:34;10.60;99.90
23120;DHT22;11729;50.836;4.330;2023-02-21T14:13:33;10.90;99.90
23120;DHT22;11729;50.836;4.330;2023-02-21T14:21:16;11.30;99.90
23120;DHT22;11729;50.836;4.330;2023-02-21T14:23:49;11.30;99.90
23120;DHT22;11729;50.836;4.330;2023-02-21T14:26:38;11.40;99.90
23120;DHT22;11729;50.836;4.330;2023-02-21T14:34:31;11.20;99.90
23120;DHT22;11729;50.836;4.330;2023-02-21T14:39:47;11.10;99.90
23120;DHT22;11729;50.836;4.330;2023-02-21T14:42:26;11.00;99.90
23120;DHT22;11729;50.836;4.330;2023-02-21T14:59:07;10.80;99.90
23120;DHT22;11729;50.836;4.330;2023-02-21T15:02:04;10.70;99.90
23120;DHT22;11729;50.836;4.330;2023-02-21T15:07:43;10.80;99.90
23120;DHT22;11729;50.836;4.330;2023-02-21T15:12:48;10.50;99.90
23120;DHT22;11729;50.836;4.330;2023-02-21T15:15:34;10.60;99.90
23120;DHT22;11729;50.836;4.330;2023-02-21T15:18:05;10.70;99.90
23120;DHT22;11729;50.836;4.330;2023-02-21T15:20:34;10.70;99.90
23120;DHT22;11729;50.836;4.330;2023-02-21T15:23:19;10.60;99.90
23120;DHT22;11729;50.836;4.330;2023-02-21T15:25:57;11.00;99.90
23120;DHT22;11729;50.836;4.330;2023-02-21T15:28:25;10.80;99.90
23120;DHT22;11729;50.836;4.330;2023-02-21T15:30:59;10.70;99.90
23120;DHT22;11729;50.836;4.330;2023-02-21T15:33:34;10.60;99.90
23120;DHT22;11729;50.836;4.330;2023-02-21T15:36:13;10.70;99.90
23120;DHT22;11729;50.836;4.330;2023-02-21T15:39:02;10.60;99.90
23120;DHT22;11729;50.836;4.330;2023-02-21T15:41:34;10.70;99.90
23120;DHT22;11729;50.836;4.330;2023-02-21T15:44:09;10.80;99.90
23120;DHT22;11729;50.836;4.330;2023-02-21T15:46:53;10.90;99.90
23120;DHT22;11729;50.836;4.330;2023-02-21T15:49:36;11.00;99.90
23120;DHT22;11729;50.836;4.330;2023-02-21T15:52:04;10.80;99.90
23120;DHT22;11729;50.836;4.330;2023-02-21T15:54:32;10.60;99.90
23120;DHT22;11729;50.836;4.330;2023-02-21T15:57:04;10.60;99.90
23120;DHT22;11729;50.836;4.330;2023-02-21T15:59:30;10.60;99.90
23120;DHT22;11729;50.836;4.330;2023-02-21T16:04:48;10.40;99.90
23120;DHT22;11729;50.836;4.330;2023-02-21T16:07:21;10.40;99.90
23120;DHT22;11729;50.836;4.330;2023-02-21T16:09:50;10.50;99.90
23120;DHT22;11729;50.836;4.330;2023-02-21T16:12:25;10.50;99.90
23120;DHT22;11729;50.836;4.330;2023-02-21T16:14:57;10.60;99.90
23120;DHT22;11729;50.836;4.330;2023-02-21T16:17:36;10.50;99.90
23120;DHT22;11729;50.836;4.330;2023-02-21T16:20:19;10.70;99.90
23120;DHT22;11729;50.836;4.330;2023-02-21T16:22:50;10.60;99.90
23120;DHT22;11729;50.836;4.330;2023-02-21T16:25:22;10.40;99.90
23120;DHT22;11729;50.836;4.330;2023-02-21T16:27:56;10.40;99.90
23120;DHT22;11729;50.836;4.330;2023-02-21T16:30:24;10.40;99.90
23120;DHT22;11729;50.836;4.330;2023-02-21T16:32:53;10.50;99.90
23120;DHT22;11729;50.836;4.330;2023-02-21T16:35:24;10.50;99.90
23120;DHT22;11729;50.836;4.330;2023-02-21T16:37:53;10.50;99.90
23120;DHT22;11729;50.836;4.330;2023-02-21T16:40:22;10.50;99.90
23120;DHT22;11729;50.836;4.330;2023-02-21T16:42:50;10.40;99.90
23120;DHT22;11729;50.836;4.330;2023-02-21T16:45:16;10.50;99.90
23120;DHT22;11729;50.836;4.330;2023-02-21T16:47:42;10.40;99.90
23120;DHT22;11729;50.836;4.330;2023-02-21T16:50:28;10.40;99.90
23120;DHT22;11729;50.836;4.330;2023-02-21T16:52:54;10.40;99.90
23120;DHT22;11729;50.836;4.330;2023-02-21T16:55:19;10.00;99.90
23120;DHT22;11729;50.836;4.330;2023-02-21T16:57:47;9.80;99.90
23120;DHT22;11729;50.836;4.330;2023-02-21T17:00:13;9.80;99.90
23120;DHT22;11729;50.836;4.330;2023-02-21T17:02:39;9.90;99.90
23120;DHT22;11729;50.836;4.330;2023-02-21T17:05:05;9.90;99.90
23120;DHT22;11729;50.836;4.330;2023-02-21T17:07:31;9.80;99.90
23120;DHT22;11729;50.836;4.330;2023-02-21T17:09:57;9.90;99.90
23120;DHT22;11729;50.836;4.330;2023-02-21T17:12:23;10.10;99.90
23120;DHT22;11729;50.836;4.330;2023-02-21T17:14:49;9.90;99.90
23120;DHT22;11729;50.836;4.330;2023-02-21T17:17:14;9.60;99.90
23120;DHT22;11729;50.836;4.330;2023-02-21T17:19:42;9.40;99.90
23120;DHT22;11729;50.836;4.330;2023-02-21T17:22:07;9.20;99.90
23120;DHT22;11729;50.836;4.330;2023-02-21T17:24:33;9.10;99.90
23120;DHT22;11729;50.836;4.330;2023-02-21T17:26:59;9.10;99.90
23120;DHT22;11729;50.836;4.330;2023-02-21T17:29:26;9.00;99.90
23120;DHT22;11729;50.836;4.330;2023-02-21T17:31:53;9.00;99.90
23120;DHT22;11729;50.836;4.330;2023-02-21T17:34:21;8.90;99.90
23120;DHT22;11729;50.836;4.330;2023-02-21T17:36:50;8.80;99.90
23120;DHT22;11729;50.836;4.330;2023-02-21T17:39:20;8.70;99.90
23120;DHT22;11729;50.836;4.330;2023-02-21T17:41:50;8.60;99.90
23120;DHT22;11729;50.836;4.330;2023-02-21T17:44:19;8.60;99.90
23120;DHT22;11729;50.836;4.330;2023-02-21T17:46:49;8.60;99.90
23120;DHT22;11729;50.836;4.330;2023-02-21T17:49:31;8.50;99.90
23120;DHT22;11729;50.836;4.330;2023-02-21T17:51:57;8.50;99.90
23120;DHT22;11729;50.836;4.330;2023-02-21T17:54:24;8.50;99.90
23120;DHT22;11729;50.836;4.330;2023-02-21T17:56:50;8.40;99.90
23120;DHT22;11729;50.836;4.330;2023-02-21T17:59:18;8.40;99.90
23120;DHT22;11729;50.836;4.330;2023-02-21T18:01:44;8.40;99.90
23120;DHT22;11729;50.836;4.330;2023-02-21T18:04:10;8.40;99.90
23120;DHT22;11729;50.836;4.330;2023-02-21T18:06:36;8.30;99.90
23120;DHT22;11729;50.836;4.330;2023-02-21T18:09:05;8.20;99.90
23120;DHT22;11729;50.836;4.330;2023-02-21T18:11:32;8.20;99.90
23120;DHT22;11729;50.836;4.330;2023-02-21T18:14:01;8.20;99.90
23120;DHT22;11729;50.836;4.330;2023-02-21T18:16:27;8.20;99.90
23120;DHT22;11729;50.836;4.330;2023-02-21T18:18:53;8.10;99.90
23120;DHT22;11729;50.836;4.330;2023-02-21T18:21:19;8.10;99.90
23120;DHT22;11729;50.836;4.330;2023-02-21T18:23:48;8.00;99.90
23120;DHT22;11729;50.836;4.330;2023-02-21T18:26:14;8.00;99.90
23120;DHT22;11729;50.836;4.330;2023-02-21T18:28:41;8.00;99.90
23120;DHT22;11729;50.836;4.330;2023-02-21T18:31:06;8.00;99.90
23120;DHT22;11729;50.836;4.330;2023-02-21T18:33:32;8.00;99.90
23120;DHT22;11729;50.836;4.330;2023-02-21T18:36:07;8.00;99.90
23120;DHT22;11729;50.836;4.330;2023-02-21T18:38:34;8.10;99.90
23120;DHT22;11729;50.836;4.330;2023-02-21T18:41:00;8.10;99.90
23120;DHT22;11729;50.836;4.330;2023-02-21T18:43:28;8.10;99.90
23120;DHT22;11729;50.836;4.330;2023-02-21T18:45:56;8.10;99.90
23120;DHT22;11729;50.836;4.330;2023-02-21T18:48:23;8.00;99.90
23120;DHT22;11729;50.836;4.330;2023-02-21T18:50:50;8.10;99.90
23120;DHT22;11729;50.836;4.330;2023-02-21T18:53:16;8.00;99.90
23120;DHT22;11729;50.836;4.330;2023-02-21T18:55:43;8.10;99.90